Franklin, Illinois
Current Conditions -  °F | °C
As of 10:15 PM on Friday 24 Oct 2014 (Local Time) from KIJX Reporting Station
Clear Clear  
Wind Chill: 17°   Ceiling: Unl
Heat Index: 17°   Visibility: 10mi
Dew Point: 10°   Wind: 5mph
Humidity: 63%   Direction: 190°S
Pressure: 29.98"   Gusts: NA
Location:  39.62°N, 90.04°W
Report Text: KIJX 250315Z AUTO 19004KT 10SM CLR 17/10 A2998 RMK AO2 T01720102
Loading
Personal Weather Stations






























Interactive Weather Map
Tropical Storm Tracking
New forecast layout! Learn more

10-Day Weather Forecast

Advertisements
Track Severe Weather on mobile